Time;durP1;ratioP1;P1;durP2;ratioP2;P2;SDS_P1;SDS_P2;PMS_P1;PMS_P2;Temp;Humidity;BMP_temperature;BMP_pressure;BME280_temperature;BME280_humidity;BME280_pressure;Samples;Min_cycle;Max_cycle;Signal;HPM_P1;HPM_P2
2023/01/04 00:00:09;;;;;;;10.75;4.00;;;8.40;99.90;;;;;;5127558;28;20043;-80
2023/01/04 00:02:35;;;;;;;10.05;4.00;;;8.40;99.90;;;;;;5102596;28;20031;-81
2023/01/04 00:05:00;;;;;;;8.90;4.30;;;8.40;99.90;;;;;;5102022;28;20039;-81
2023/01/04 00:07:28;;;;;;;9.60;3.88;;;8.40;99.90;;;;;;5106333;28;20038;-81
2023/01/04 00:09:54;;;;;;;11.57;4.53;;;8.40;99.90;;;;;;5094839;28;20035;-81
2023/01/04 00:12:20;;;;;;;11.45;4.47;;;8.50;99.90;;;;;;5113091;27;20040;-80
2023/01/04 00:14:45;;;;;;;9.20;4.22;;;8.50;99.90;;;;;;5113197;27;20039;-80
2023/01/04 00:17:11;;;;;;;10.50;4.32;;;8.50;99.90;;;;;;5112815;27;20032;-81
2023/01/04 00:19:37;;;;;;;8.32;3.95;;;8.50;99.90;;;;;;5107488;27;20040;-80
2023/01/04 00:22:02;;;;;;;11.30;4.63;;;8.50;99.90;;;;;;5134101;27;20387;-81
2023/01/04 00:24:28;;;;;;;9.07;3.85;;;8.50;99.90;;;;;;5111019;28;20039;-81
2023/01/04 00:26:54;;;;;;;9.40;4.05;;;8.50;99.90;;;;;;5098849;27;20524;-81
2023/01/04 00:29:19;;;;;;;10.80;4.15;;;8.50;99.90;;;;;;5112810;27;20395;-80
2023/01/04 00:31:45;;;;;;;9.93;4.30;;;8.40;99.90;;;;;;5114563;27;20031;-81
2023/01/04 00:34:14;;;;;;;9.32;4.30;;;8.50;99.90;;;;;;5098965;27;20126;-81
2023/01/04 00:36:40;;;;;;;9.80;4.32;;;8.50;99.90;;;;;;5112661;27;20391;-80
2023/01/04 00:39:06;;;;;;;9.00;3.95;;;8.40;99.90;;;;;;5094756;28;20050;-81
2023/01/04 00:41:43;;;;;;;11.55;4.55;;;8.40;99.90;;;;;;5149883;27;20035;-81
2023/01/04 00:44:10;;;;;;;9.27;4.35;;;8.40;99.90;;;;;;5094361;28;20085;-81
2023/01/04 00:46:36;;;;;;;11.77;4.40;;;8.30;99.90;;;;;;5094190;28;20084;-81
2023/01/04 00:49:02;;;;;;;9.88;4.38;;;8.30;99.90;;;;;;5111914;27;20496;-81
2023/01/04 00:51:29;;;;;;;10.63;4.38;;;8.20;99.90;;;;;;5098566;27;20031;-81
2023/01/04 00:53:56;;;;;;;11.20;4.85;;;8.20;99.90;;;;;;5125447;27;20086;-81
2023/01/04 00:56:22;;;;;;;10.02;4.68;;;8.20;99.90;;;;;;5141106;27;20111;-80
2023/01/04 00:58:47;;;;;;;13.38;5.10;;;8.20;99.90;;;;;;5113930;27;20043;-81
2023/01/04 01:01:13;;;;;;;10.00;4.80;;;8.20;99.90;;;;;;5132962;27;20039;-81
2023/01/04 01:03:39;;;;;;;12.63;4.85;;;8.20;99.90;;;;;;5094024;28;20046;-81
2023/01/04 01:06:06;;;;;;;13.18;4.78;;;8.20;99.90;;;;;;5111392;27;20047;-81
2023/01/04 01:08:33;;;;;;;10.30;4.70;;;8.20;99.90;;;;;;5094549;28;20047;-80
2023/01/04 01:11:04;;;;;;;10.48;4.45;;;8.10;99.90;;;;;;5093828;27;20044;-80
2023/01/04 01:13:30;;;;;;;11.10;4.55;;;8.20;99.90;;;;;;5112576;28;20046;-81
2023/01/04 01:16:00;;;;;;;9.82;4.18;;;8.20;99.90;;;;;;5130408;27;20035;-81
2023/01/04 01:18:27;;;;;;;11.52;4.53;;;8.20;99.90;;;;;;5148180;27;20095;-81
2023/01/04 01:20:53;;;;;;;10.13;4.93;;;8.20;99.90;;;;;;5139072;27;20058;-83
2023/01/04 01:23:18;;;;;;;11.48;5.00;;;8.20;99.90;;;;;;5131452;27;20075;-80
2023/01/04 01:25:44;;;;;;;10.88;4.57;;;8.20;99.90;;;;;;5118186;27;20075;-81
2023/01/04 01:28:09;;;;;;;9.82;4.57;;;8.20;99.90;;;;;;5112211;28;20051;-80
2023/01/04 01:30:40;;;;;;;10.27;4.50;;;8.30;99.90;;;;;;5093911;27;20484;-82
2023/01/04 01:33:06;;;;;;;10.02;4.40;;;8.20;99.90;;;;;;5109918;27;20039;-80
2023/01/04 01:35:33;;;;;;;11.07;4.97;;;8.30;99.90;;;;;;5099157;27;20039;-81
2023/01/04 01:37:59;;;;;;;9.35;4.40;;;8.20;99.90;;;;;;5112176;27;20187;-81
2023/01/04 01:40:24;;;;;;;9.95;4.80;;;8.20;99.90;;;;;;5097577;27;20451;-81
2023/01/04 01:42:50;;;;;;;11.20;4.78;;;8.30;99.90;;;;;;5113946;27;20047;-81
2023/01/04 01:45:34;;;;;;;10.38;4.90;;;8.20;99.90;;;;;;5106243;27;20038;-81
2023/01/04 01:48:08;;;;;;;10.80;5.35;;;8.20;99.90;;;;;;5112449;27;20042;-81
2023/01/04 01:50:49;;;;;;;11.27;4.90;;;8.20;99.90;;;;;;5111377;27;20499;-80
2023/01/04 01:53:14;;;;;;;9.95;4.80;;;8.20;99.90;;;;;;5131519;27;20050;-80
2023/01/04 01:55:42;;;;;;;9.45;5.22;;;8.20;99.90;;;;;;5114040;27;20035;-80
2023/01/04 01:58:12;;;;;;;9.60;5.00;;;8.30;99.90;;;;;;5113112;27;20114;-80
2023/01/04 02:00:38;;;;;;;9.07;5.13;;;8.20;99.90;;;;;;5113941;27;20112;-80
2023/01/04 02:03:17;;;;;;;8.88;4.57;;;8.30;99.90;;;;;;5147160;27;20043;-80
2023/01/04 02:05:44;;;;;;;9.98;4.60;;;8.30;99.90;;;;;;5093691;28;20031;-80
2023/01/04 02:08:11;;;;;;;9.20;4.90;;;8.30;99.90;;;;;;5093242;28;20047;-80
2023/01/04 02:10:37;;;;;;;10.02;5.40;;;8.30;99.90;;;;;;5093249;28;20043;-80
2023/01/04 02:13:07;;;;;;;9.65;4.70;;;8.30;99.90;;;;;;5097423;27;20559;-80
2023/01/04 02:15:48;;;;;;;8.20;4.28;;;8.30;99.90;;;;;;5113018;27;20043;-80
2023/01/04 02:18:21;;;;;;;8.48;4.50;;;8.30;99.90;;;;;;5097929;28;20053;-81
2023/01/04 02:20:52;;;;;;;9.50;4.70;;;8.30;99.90;;;;;;5135963;27;20039;-81
2023/01/04 02:23:18;;;;;;;10.20;4.68;;;8.30;99.90;;;;;;5131372;27;20416;-80
2023/01/04 02:26:27;;;;;;;12.35;5.25;;;8.30;99.90;;;;;;5096460;27;20051;-81
2023/01/04 02:29:10;;;;;;;7.97;4.22;;;8.30;99.90;;;;;;5064004;28;20444;-80
2023/01/04 02:31:51;;;;;;;8.32;4.03;;;8.40;99.90;;;;;;5030478;28;20067;-81
2023/01/04 02:34:35;;;;;;;8.68;4.47;;;8.40;99.90;;;;;;5047894;28;20110;-80
2023/01/04 02:37:19;;;;;;;7.40;4.20;;;8.40;99.90;;;;;;5047776;28;20107;-80
2023/01/04 02:39:45;;;;;;;6.80;3.72;;;8.40;99.90;;;;;;5030412;28;20062;-81
2023/01/04 02:45:24;;;;;;;6.25;3.50;;;8.40;99.90;;;;;;5029753;28;20048;-79
2023/01/04 02:50:56;;;;;;;6.82;3.65;;;8.50;99.90;;;;;;5031026;28;20284;-82
2023/01/04 02:53:40;;;;;;;9.02;3.90;;;8.50;99.90;;;;;;5030869;28;20052;-83
2023/01/04 02:56:15;;;;;;;8.00;4.15;;;8.50;99.90;;;;;;5064138;28;20133;-82
2023/01/04 02:58:55;;;;;;;8.70;3.88;;;8.60;99.90;;;;;;5029975;28;20045;-81
2023/01/04 03:08:14;;;;;;;8.07;3.63;;;8.70;99.90;;;;;;5147292;27;20133;-81
2023/01/04 03:10:54;;;;;;;6.75;3.88;;;8.70;99.90;;;;;;5098143;28;20059;-81
2023/01/04 03:13:29;;;;;;;8.82;4.20;;;8.80;99.90;;;;;;5092078;28;20052;-82
2023/01/04 03:16:09;;;;;;;6.93;3.88;;;8.80;99.90;;;;;;5106230;28;20050;-83
2023/01/04 03:18:39;;;;;;;7.85;4.03;;;8.80;99.90;;;;;;5126367;28;20048;-82
2023/01/04 03:21:08;;;;;;;7.57;4.43;;;8.90;99.90;;;;;;5110095;28;20122;-81
2023/01/04 03:35:26;;;;;;;;;;;9.00;99.90;;;;;;5125675;27;20047;-81
2023/01/04 03:50:16;;;;;;;7.65;4.47;;;9.30;99.90;;;;;;5095607;28;20059;-81
2023/01/04 03:52:45;;;;;;;6.97;4.40;;;9.40;99.90;;;;;;5095936;28;20048;-80
2023/01/04 03:55:12;;;;;;;7.85;4.60;;;9.40;99.90;;;;;;5095818;28;20039;-79
2023/01/04 03:57:39;;;;;;;8.35;4.70;;;9.50;99.90;;;;;;5129540;27;20047;-82
2023/01/04 04:00:11;;;;;;;7.80;4.30;;;9.50;99.90;;;;;;5119683;27;20046;-83
2023/01/04 04:02:38;;;;;;;7.57;4.22;;;9.50;99.90;;;;;;5134409;27;20035;-83
2023/01/04 04:10:33;;;;;;;6.35;4.18;;;9.50;99.90;;;;;;5095375;28;20043;-79
2023/01/04 04:12:58;;;;;;;6.95;4.55;;;9.60;99.90;;;;;;5096459;27;20043;-80
2023/01/04 04:15:24;;;;;;;7.00;4.18;;;9.60;99.90;;;;;;5132133;27;20088;-83
2023/01/04 04:17:49;;;;;;;7.25;4.07;;;9.60;99.90;;;;;;5132702;27;20407;-83
2023/01/04 04:20:15;;;;;;;6.97;4.70;;;9.60;99.90;;;;;;5126960;27;20044;-83
2023/01/04 04:22:41;;;;;;;6.70;4.40;;;9.70;99.90;;;;;;5133222;27;20042;-82
2023/01/04 04:25:07;;;;;;;8.07;4.60;;;9.70;99.90;;;;;;5115052;27;20041;-82
2023/01/04 04:27:33;;;;;;;7.93;4.57;;;9.70;99.90;;;;;;5133813;27;20391;-80
2023/01/04 04:29:58;;;;;;;7.25;4.55;;;9.80;99.90;;;;;;5114658;27;20063;-82
2023/01/04 04:32:24;;;;;;;8.93;4.78;;;9.80;99.90;;;;;;5115500;27;20130;-82
2023/01/04 04:34:49;;;;;;;7.35;4.63;;;9.80;99.90;;;;;;5114419;27;20394;-82
2023/01/04 04:37:15;;;;;;;7.47;4.60;;;9.80;99.90;;;;;;5115129;27;20075;-80
2023/01/04 04:39:41;;;;;;;7.18;4.90;;;9.90;99.90;;;;;;5132583;27;20043;-81
2023/01/04 04:42:07;;;;;;;8.25;5.03;;;9.90;99.90;;;;;;5132711;27;20395;-81
2023/01/04 04:44:34;;;;;;;7.78;5.35;;;9.90;99.90;;;;;;5131867;27;20063;-84
2023/01/04 04:46:59;;;;;;;7.65;5.25;;;9.90;99.90;;;;;;5120194;27;20039;-81
2023/01/04 04:49:25;;;;;;;8.05;5.00;;;10.00;99.90;;;;;;5094256;28;20038;-82
2023/01/04 04:51:51;;;;;;;8.20;5.80;;;9.90;99.90;;;;;;5094379;28;20496;-82
2023/01/04 04:54:19;;;;;;;8.10;5.45;;;10.00;99.90;;;;;;5121400;27;20035;-81
2023/01/04 04:56:45;;;;;;;9.80;6.20;;;10.00;99.90;;;;;;5114176;27;20050;-81
2023/01/04 04:59:11;;;;;;;8.00;5.80;;;10.00;99.90;;;;;;5096386;27;20042;-81
2023/01/04 05:01:36;;;;;;;8.50;6.25;;;10.00;99.90;;;;;;5133539;27;20031;-80
2023/01/04 05:04:02;;;;;;;8.90;6.70;;;10.10;99.90;;;;;;5111803;27;20117;-81
2023/01/04 05:06:28;;;;;;;9.13;6.28;;;10.10;99.90;;;;;;5114652;27;20492;-81
2023/01/04 05:08:54;;;;;;;9.25;7.15;;;10.10;99.90;;;;;;5128091;27;20574;-81
2023/01/04 05:12:58;;;;;;;9.30;6.95;;;10.20;99.90;;;;;;5094342;28;20472;-81
2023/01/04 05:14:05;;;;;;;8.43;6.70;;;10.20;99.90;;;;;;5107507;27;20047;-81
2023/01/04 05:16:31;;;;;;;8.80;6.97;;;10.20;99.90;;;;;;5133119;27;20487;-81
2023/01/04 05:18:56;;;;;;;8.70;6.70;;;10.20;99.90;;;;;;5097775;28;20036;-82
2023/01/04 05:21:22;;;;;;;9.07;7.32;;;10.30;99.90;;;;;;5112175;28;20039;-81
2023/01/04 05:23:48;;;;;;;8.43;6.88;;;10.30;99.90;;;;;;5093650;28;20048;-82
2023/01/04 05:26:13;;;;;;;9.10;7.28;;;10.40;99.90;;;;;;5093891;28;20051;-82
2023/01/04 05:28:39;;;;;;;8.65;7.03;;;10.40;99.90;;;;;;5112736;28;20127;-83
2023/01/04 05:31:05;;;;;;;9.20;7.40;;;10.40;99.90;;;;;;5097305;27;20074;-81
2023/01/04 05:33:31;;;;;;;9.77;7.78;;;10.40;99.90;;;;;;5114352;27;20135;-80
2023/01/04 05:36:00;;;;;;;9.35;7.68;;;10.50;99.90;;;;;;5132303;27;20067;-81
2023/01/04 05:38:25;;;;;;;9.55;7.97;;;10.50;99.90;;;;;;5131448;27;20065;-81
2023/01/04 05:40:51;;;;;;;10.15;8.63;;;10.60;99.90;;;;;;5131980;27;20114;-81
2023/01/04 05:43:18;;;;;;;10.82;9.10;;;10.60;99.90;;;;;;5132204;27;20484;-80
2023/01/04 05:45:48;;;;;;;10.13;9.00;;;10.60;99.90;;;;;;5109993;28;20059;-81
2023/01/04 05:48:15;;;;;;;11.10;9.10;;;10.60;99.90;;;;;;5093420;28;20097;-80
2023/01/04 05:50:40;;;;;;;11.30;8.48;;;10.60;99.90;;;;;;5093724;28;20039;-80
2023/01/04 05:53:06;;;;;;;10.82;8.32;;;10.70;99.90;;;;;;5092269;28;20028;-80
2023/01/04 05:55:33;;;;;;;11.02;7.95;;;10.70;99.90;;;;;;5113606;27;20080;-80
2023/01/04 05:57:58;;;;;;;9.05;7.93;;;10.70;99.90;;;;;;5096205;27;20050;-80
2023/01/04 06:00:24;;;;;;;10.48;8.48;;;10.70;99.90;;;;;;5112543;27;20043;-80
2023/01/04 06:02:54;;;;;;;10.73;8.73;;;10.70;99.90;;;;;;5131867;27;20042;-80
2023/01/04 06:05:21;;;;;;;10.90;8.73;;;10.70;99.90;;;;;;5113550;27;20042;-80
2023/01/04 06:07:46;;;;;;;11.40;8.52;;;10.80;99.90;;;;;;5127499;27;20946;-80
2023/01/04 06:10:13;;;;;;;10.55;7.38;;;10.80;99.90;;;;;;5093201;28;20181;-80
2023/01/04 06:12:39;;;;;;;11.93;8.40;;;10.80;99.90;;;;;;5095654;27;20044;-81
2023/01/04 06:15:06;;;;;;;11.82;8.52;;;10.80;99.90;;;;;;5133177;27;20051;-81
2023/01/04 06:17:32;;;;;;;10.85;7.00;;;10.80;99.90;;;;;;5111223;28;20046;-82
2023/01/04 06:19:58;;;;;;;9.45;7.25;;;10.90;99.90;;;;;;5093029;28;20505;-83
2023/01/04 06:22:25;;;;;;;11.63;7.97;;;10.90;99.90;;;;;;5092889;27;20158;-81
2023/01/04 06:24:51;;;;;;;8.68;6.75;;;10.90;99.90;;;;;;5122358;27;20036;-81
2023/01/04 06:27:17;;;;;;;9.45;6.55;;;10.90;99.90;;;;;;5105360;27;20042;-82
2023/01/04 06:29:43;;;;;;;9.10;6.70;;;10.90;99.90;;;;;;5131525;27;20027;-83
2023/01/04 06:32:08;;;;;;;8.93;6.43;;;10.90;99.90;;;;;;5142694;27;20034;-81
2023/01/04 06:34:34;;;;;;;8.82;6.20;;;11.00;99.90;;;;;;5109941;27;20058;-81
2023/01/04 06:37:00;;;;;;;9.07;6.13;;;11.00;99.90;;;;;;5110561;28;20039;-84
2023/01/04 06:39:26;;;;;;;8.50;5.68;;;11.00;99.90;;;;;;5092570;28;20035;-84
2023/01/04 06:41:51;;;;;;;8.07;5.88;;;11.00;99.90;;;;;;5110959;28;20044;-82
2023/01/04 06:44:17;;;;;;;8.57;5.68;;;11.10;99.90;;;;;;5092483;28;20506;-83
2023/01/04 06:46:43;;;;;;;8.43;5.75;;;11.00;99.90;;;;;;5103295;27;20050;-83
2023/01/04 06:49:08;;;;;;;7.38;4.97;;;11.00;99.90;;;;;;5119688;27;20051;-82
2023/01/04 06:51:34;;;;;;;7.63;4.90;;;11.00;99.90;;;;;;5111051;27;20039;-81
2023/01/04 06:54:00;;;;;;;8.75;5.47;;;11.00;99.90;;;;;;5112736;27;20043;-82
2023/01/04 06:56:25;;;;;;;7.97;5.63;;;11.00;99.90;;;;;;5130569;27;20066;-80
2023/01/04 06:58:51;;;;;;;8.98;5.28;;;11.00;99.90;;;;;;5130671;27;20030;-80
2023/01/04 07:01:16;;;;;;;8.05;5.15;;;11.00;99.90;;;;;;5112071;28;20421;-81
2023/01/04 07:03:42;;;;;;;8.30;5.38;;;11.00;99.90;;;;;;5129296;27;20035;-79
2023/01/04 07:06:09;;;;;;;7.63;5.07;;;11.00;99.90;;;;;;5109124;28;20023;-80
2023/01/04 07:08:35;;;;;;;7.65;4.93;;;11.00;99.90;;;;;;5106706;27;20039;-80
2023/01/04 07:11:01;;;;;;;7.45;4.65;;;11.00;99.90;;;;;;5136072;27;20039;-79
2023/01/04 07:13:26;;;;;;;6.78;4.28;;;11.10;99.90;;;;;;5110930;27;20061;-80
2023/01/04 07:15:52;;;;;;;6.80;4.35;;;11.10;99.90;;;;;;5102945;28;20023;-79
2023/01/04 07:18:18;;;;;;;6.75;4.20;;;11.00;99.90;;;;;;5099572;27;20069;-79
2023/01/04 07:20:43;;;;;;;7.32;4.55;;;11.10;99.90;;;;;;5108062;27;20031;-81
2023/01/04 07:23:09;;;;;;;7.25;4.13;;;11.10;99.90;;;;;;5133160;27;20047;-81
2023/01/04 07:25:35;;;;;;;6.53;4.07;;;11.10;99.90;;;;;;5116276;27;20047;-80
2023/01/04 07:28:04;;;;;;;7.00;3.85;;;11.10;99.90;;;;;;5129964;27;20055;-80
2023/01/04 07:30:30;;;;;;;7.40;3.97;;;11.10;99.90;;;;;;5117511;27;20028;-78
2023/01/04 07:32:56;;;;;;;6.47;3.80;;;11.20;99.90;;;;;;5116530;27;20039;-78
2023/01/04 07:35:22;;;;;;;7.00;4.10;;;11.20;99.90;;;;;;5113401;27;20042;-79
2023/01/04 07:37:47;;;;;;;7.25;3.85;;;11.20;99.90;;;;;;5108960;27;20689;-79
2023/01/04 07:40:13;;;;;;;6.43;3.70;;;11.20;99.90;;;;;;5130770;27;20043;-79
2023/01/04 07:42:39;;;;;;;6.45;3.97;;;11.20;99.90;;;;;;5114269;27;20118;-81
2023/01/04 07:45:06;;;;;;;5.70;3.50;;;11.20;99.90;;;;;;5115711;27;20054;-80
2023/01/04 07:47:31;;;;;;;6.22;3.80;;;11.30;99.90;;;;;;5115175;27;20035;-80
2023/01/04 07:49:58;;;;;;;6.03;3.50;;;11.30;99.90;;;;;;5115132;27;20046;-79
2023/01/04 07:52:24;;;;;;;6.13;3.58;;;11.20;99.90;;;;;;5115408;27;20047;-83
2023/01/04 07:54:50;;;;;;;6.00;3.65;;;11.20;99.90;;;;;;5112824;27;20031;-79
2023/01/04 07:57:16;;;;;;;7.95;3.83;;;11.20;99.90;;;;;;5114699;27;20096;-79
2023/01/04 07:59:41;;;;;;;8.43;4.00;;;11.20;99.90;;;;;;5115215;27;20588;-80
2023/01/04 08:02:10;;;;;;;7.43;4.43;;;11.20;99.90;;;;;;5115537;27;20039;-79
2023/01/04 08:04:36;;;;;;;8.10;4.40;;;11.30;99.90;;;;;;5134028;27;20554;-80
2023/01/04 08:07:02;;;;;;;7.28;4.68;;;11.30;99.90;;;;;;5115875;27;20144;-79
2023/01/04 08:09:27;;;;;;;7.40;4.90;;;11.20;99.90;;;;;;5115951;27;20050;-80
2023/01/04 08:11:53;;;;;;;8.82;5.65;;;11.30;99.90;;;;;;5116025;27;20039;-80
2023/01/04 08:14:19;;;;;;;9.52;5.40;;;11.30;99.90;;;;;;5131847;27;20074;-80
2023/01/04 08:16:44;;;;;;;8.48;5.63;;;11.30;99.90;;;;;;5134009;27;20050;-78
2023/01/04 08:19:17;;;;;;;8.48;5.55;;;11.30;99.90;;;;;;5114910;27;20046;-78
2023/01/04 08:21:43;;;;;;;8.02;5.30;;;11.30;99.90;;;;;;5134262;27;20046;-78
2023/01/04 08:24:14;;;;;;;7.90;5.00;;;11.40;99.90;;;;;;5133625;27;20083;-79
2023/01/04 08:26:41;;;;;;;8.15;5.38;;;11.40;99.90;;;;;;5115933;27;20406;-79
2023/01/04 08:29:06;;;;;;;8.50;5.00;;;11.40;99.90;;;;;;5132406;27;20038;-79
2023/01/04 08:31:33;;;;;;;8.45;5.50;;;11.40;99.90;;;;;;5113086;27;20044;-79
2023/01/04 08:34:02;;;;;;;7.90;5.10;;;11.50;99.90;;;;;;5112587;28;20059;-78
2023/01/04 08:36:30;;;;;;;8.63;5.05;;;11.50;99.90;;;;;;5094429;28;20047;-78
2023/01/04 08:38:58;;;;;;;8.45;5.38;;;11.50;99.90;;;;;;5094817;28;20040;-79
2023/01/04 08:41:24;;;;;;;8.23;5.20;;;11.50;99.90;;;;;;5112733;28;20042;-79
2023/01/04 08:43:50;;;;;;;8.40;4.95;;;11.50;99.90;;;;;;5113383;27;20027;-79
2023/01/04 08:46:16;;;;;;;7.97;4.57;;;11.50;99.90;;;;;;5107445;27;20086;-81
2023/01/04 08:48:42;;;;;;;7.35;4.13;;;11.50;99.90;;;;;;5113866;27;20070;-80
2023/01/04 08:51:10;;;;;;;7.15;4.53;;;11.50;99.90;;;;;;5114627;27;20479;-79
2023/01/04 08:53:36;;;;;;;7.55;4.38;;;11.60;99.90;;;;;;5115025;27;20043;-82
2023/01/04 08:56:03;;;;;;;8.38;4.35;;;11.50;99.90;;;;;;5132986;27;20084;-80
2023/01/04 08:58:30;;;;;;;6.70;4.15;;;11.50;99.90;;;;;;5149364;27;20035;-79
2023/01/04 09:01:01;;;;;;;6.68;3.42;;;11.60;99.90;;;;;;5133220;27;20047;-80
2023/01/04 09:03:27;;;;;;;7.20;4.00;;;11.60;99.90;;;;;;5101065;28;20503;-79
2023/01/04 09:05:52;;;;;;;5.43;3.38;;;11.60;99.90;;;;;;5108988;27;20141;-79
2023/01/04 09:08:18;;;;;;;7.38;3.63;;;11.60;99.90;;;;;;5113970;27;20458;-79
2023/01/04 09:10:44;;;;;;;6.90;3.65;;;11.60;99.90;;;;;;5112705;28;20062;-79
2023/01/04 09:13:09;;;;;;;6.80;3.80;;;11.70;99.90;;;;;;5093862;28;20400;-79
2023/01/04 09:15:38;;;;;;;6.30;3.30;;;11.70;99.90;;;;;;5127976;27;20441;-79
2023/01/04 09:18:04;;;;;;;6.30;3.20;;;11.70;99.90;;;;;;5113157;27;20216;-80
2023/01/04 09:20:30;;;;;;;5.93;3.28;;;11.70;99.90;;;;;;5132887;27;20039;-80
2023/01/04 09:22:57;;;;;;;5.97;2.80;;;11.70;99.90;;;;;;5132313;27;20074;-79
2023/01/04 09:25:23;;;;;;;4.80;2.72;;;11.60;99.90;;;;;;5114145;27;20050;-79
2023/01/04 09:27:48;;;;;;;4.85;2.60;;;11.60;99.90;;;;;;5148820;27;20039;-79
2023/01/04 09:30:14;;;;;;;6.40;2.63;;;11.70;99.90;;;;;;5148633;27;20490;-81
2023/01/04 09:32:40;;;;;;;4.97;2.33;;;11.70;99.90;;;;;;5112187;27;20046;-79
2023/01/04 09:35:07;;;;;;;5.72;2.30;;;11.70;99.90;;;;;;5113620;27;20035;-80
2023/01/04 09:37:32;;;;;;;5.22;2.50;;;11.70;99.90;;;;;;5097183;27;20050;-79
2023/01/04 09:39:58;;;;;;;4.05;2.30;;;11.70;99.90;;;;;;5132312;27;20035;-79
2023/01/04 09:42:31;;;;;;;4.70;2.28;;;11.70;99.90;;;;;;5131607;27;20100;-79
2023/01/04 09:45:16;;;;;;;4.25;1.90;;;11.70;99.90;;;;;;5111593;27;20035;-81
2023/01/04 09:48:10;;;;;;;3.92;1.90;;;11.80;99.90;;;;;;5132528;27;20115;-80
2023/01/04 09:50:52;;;;;;;4.15;2.03;;;11.80;99.90;;;;;;5132340;27;20042;-79
2023/01/04 09:53:39;;;;;;;3.75;2.00;;;11.80;99.90;;;;;;5113620;27;20082;-79
2023/01/04 09:56:25;;;;;;;4.55;2.10;;;11.80;99.90;;;;;;5131651;27;20482;-83
2023/01/04 09:58:52;;;;;;;3.13;1.70;;;11.80;99.90;;;;;;5112016;27;20503;-79
2023/01/04 10:01:22;;;;;;;4.13;2.00;;;11.80;99.90;;;;;;5092905;28;20050;-79
2023/01/04 10:04:14;;;;;;;3.92;2.00;;;11.80;99.90;;;;;;5127166;27;20118;-79
2023/01/04 10:06:39;;;;;;;3.35;1.92;;;11.80;99.90;;;;;;5127386;27;20113;-79
2023/01/04 10:09:16;;;;;;;3.85;2.10;;;11.70;99.90;;;;;;5111085;28;20056;-79
2023/01/04 10:11:48;;;;;;;3.15;1.80;;;11.70;99.90;;;;;;5111546;28;20084;-81
2023/01/04 10:14:41;;;;;;;4.05;2.05;;;11.70;99.90;;;;;;5092520;28;20040;-80
2023/01/04 10:17:27;;;;;;;4.35;2.20;;;11.70;99.90;;;;;;5110685;28;20051;-79
2023/01/04 10:20:21;;;;;;;5.15;2.30;;;11.70;99.90;;;;;;5093066;28;20452;-80
2023/01/04 10:22:59;;;;;;;4.93;2.60;;;11.80;99.90;;;;;;5126316;27;20134;-80
2023/01/04 10:25:28;;;;;;;5.70;2.40;;;11.80;99.90;;;;;;5110787;28;20079;-80
2023/01/04 10:28:37;;;;;;;6.05;2.80;;;11.90;99.90;;;;;;5092451;28;20051;-81
2023/01/04 10:31:40;;;;;;;6.82;2.80;;;11.90;99.90;;;;;;5092496;28;20052;-79
2023/01/04 10:34:22;;;;;;;6.93;2.80;;;11.90;99.90;;;;;;5092280;28;20055;-80
2023/01/04 10:36:50;;;;;;;7.22;3.05;;;12.00;99.90;;;;;;5093913;27;20038;-80
2023/01/04 10:39:19;;;;;;;8.93;3.53;;;12.00;99.90;;;;;;5130610;27;20121;-81
2023/01/04 10:41:54;;;;;;;11.88;3.42;;;12.00;99.90;;;;;;5112783;27;20046;-80
2023/01/04 10:44:36;;;;;;;10.20;3.35;;;12.00;99.90;;;;;;5112392;27;20043;-80
2023/01/04 10:47:36;;;;;;;10.75;3.25;;;12.10;99.90;;;;;;5112831;27;20043;-80
2023/01/04 10:50:18;;;;;;;11.65;3.13;;;12.20;99.90;;;;;;5126900;27;20043;-81
2023/01/04 10:53:09;;;;;;;11.13;3.40;;;12.30;99.90;;;;;;5112723;27;20125;-80
2023/01/04 10:55:42;;;;;;;12.60;3.95;;;12.40;99.90;;;;;;5112076;27;20075;-81
2023/01/04 10:58:21;;;;;;;14.13;3.25;;;12.40;99.90;;;;;;5125553;27;20437;-81
2023/01/04 11:00:55;;;;;;;16.35;3.40;;;12.40;99.90;;;;;;5092219;28;20061;-80
2023/01/04 11:03:29;;;;;;;14.13;3.83;;;12.50;99.90;;;;;;5092284;28;20031;-81
2023/01/04 11:06:23;;;;;;;11.63;3.35;;;12.50;99.90;;;;;;5092372;28;20066;-81
2023/01/04 11:08:58;;;;;;;13.98;4.05;;;12.60;99.90;;;;;;5092304;28;20049;-80
2023/01/04 11:11:45;;;;;;;12.60;3.25;;;12.60;99.90;;;;;;5075393;28;20126;-79
2023/01/04 11:14:12;;;;;;;14.23;4.03;;;12.60;99.90;;;;;;5109982;28;20075;-79
2023/01/04 11:16:41;;;;;;;13.60;3.38;;;12.60;99.90;;;;;;5110638;28;20108;-80
2023/01/04 11:19:09;;;;;;;12.00;3.58;;;12.60;99.90;;;;;;5091642;28;20040;-80
2023/01/04 11:21:42;;;;;;;13.82;3.10;;;12.70;99.90;;;;;;5092235;28;20048;-80
2023/01/04 11:24:10;;;;;;;12.65;3.10;;;12.70;99.90;;;;;;5124102;28;20051;-81
2023/01/04 11:26:40;;;;;;;13.15;3.38;;;12.70;99.90;;;;;;5112166;28;20075;-79
2023/01/04 11:29:25;;;;;;;12.55;3.55;;;12.70;99.90;;;;;;5111950;28;20083;-81
2023/01/04 11:31:56;;;;;;;11.02;2.80;;;12.80;99.90;;;;;;5112345;28;20502;-80
2023/01/04 11:35:02;;;;;;;12.60;3.30;;;12.80;99.90;;;;;;5112218;28;20043;-80
2023/01/04 11:37:33;;;;;;;13.35;3.50;;;12.80;99.90;;;;;;5105137;28;20048;-80
2023/01/04 11:40:23;;;;;;;10.70;3.00;;;12.80;99.90;;;;;;5101509;28;20135;-79
2023/01/04 11:43:18;;;;;;;14.55;3.40;;;12.80;99.90;;;;;;5129627;28;20372;-79
2023/01/04 11:46:01;;;;;;;13.07;3.17;;;12.80;99.90;;;;;;5130813;28;20035;-79
2023/01/04 11:48:33;;;;;;;12.27;3.20;;;12.90;99.90;;;;;;5130345;28;20043;-79
2023/01/04 11:50:59;;;;;;;12.35;3.05;;;12.90;99.90;;;;;;5111872;28;20043;-80
2023/01/04 11:53:36;;;;;;;12.95;3.25;;;12.90;99.90;;;;;;5130240;28;20659;-79
2023/01/04 11:56:15;;;;;;;10.23;2.80;;;12.90;99.90;;;;;;5129849;28;20046;-79
2023/01/04 11:58:43;;;;;;;9.95;3.25;;;12.90;99.90;;;;;;5091654;28;20058;-80
2023/01/04 12:01:23;;;;;;;11.23;2.97;;;12.90;99.90;;;;;;5109826;28;20430;-79
2023/01/04 12:03:49;;;;;;;10.98;3.00;;;12.90;99.90;;;;;;5108858;28;20135;-79
2023/01/04 12:06:29;;;;;;;13.32;3.40;;;12.90;99.90;;;;;;5112157;28;20071;-80
2023/01/04 12:08:55;;;;;;;13.10;3.55;;;12.90;99.90;;;;;;5112236;28;20059;-79
2023/01/04 12:11:33;;;;;;;10.93;3.20;;;12.90;99.90;;;;;;5094354;28;20035;-79
2023/01/04 12:13:59;;;;;;;12.70;2.90;;;12.90;99.90;;;;;;5129229;27;20086;-79
2023/01/04 12:16:33;;;;;;;12.18;3.72;;;12.90;99.90;;;;;;5095158;28;20071;-80
2023/01/04 12:18:59;;;;;;;10.85;3.08;;;13.00;99.90;;;;;;5095179;28;20058;-79
2023/01/04 12:21:26;;;;;;;12.82;3.17;;;13.00;99.90;;;;;;5094854;28;20035;-79
2023/01/04 12:23:53;;;;;;;9.68;2.83;;;13.00;99.90;;;;;;5094733;28;20062;-79
2023/01/04 12:26:22;;;;;;;11.52;2.75;;;13.00;99.90;;;;;;5112614;27;20075;-78
2023/01/04 12:29:21;;;;;;;9.52;2.10;;;13.00;99.90;;;;;;5087310;27;20032;-81
2023/01/04 12:31:47;;;;;;;8.63;2.63;;;13.00;99.90;;;;;;5133652;27;20039;-80
2023/01/04 12:34:39;;;;;;;7.88;1.73;;;13.00;99.90;;;;;;5149666;27;20531;-79
2023/01/04 12:37:05;;;;;;;5.45;1.42;;;13.10;99.90;;;;;;5144913;27;20047;-79
2023/01/04 12:39:43;;;;;;;5.47;1.33;;;13.00;99.90;;;;;;5115042;27;20399;-80
2023/01/04 12:42:16;;;;;;;4.90;1.50;;;13.00;99.90;;;;;;5115100;27;20399;-78
2023/01/04 12:44:42;;;;;;;6.50;1.33;;;12.90;99.90;;;;;;5132557;27;20031;-79
2023/01/04 12:50:19;;;;;;;5.90;1.40;;;13.00;99.90;;;;;;5114866;27;20054;-78
2023/01/04 12:52:53;;;;;;;6.57;1.63;;;13.00;99.90;;;;;;5115087;27;20043;-79
2023/01/04 12:55:18;;;;;;;4.72;1.30;;;12.90;99.90;;;;;;5114092;27;20050;-78
2023/01/04 12:57:44;;;;;;;7.10;1.60;;;12.90;99.90;;;;;;5133061;27;20483;-81
2023/01/04 13:00:12;;;;;;;6.45;1.70;;;12.90;99.90;;;;;;5133088;27;20479;-81
2023/01/04 13:02:46;;;;;;;8.45;2.00;;;12.90;99.90;;;;;;5114199;27;20043;-79
2023/01/04 13:05:17;;;;;;;9.05;2.13;;;12.90;99.90;;;;;;5114489;27;20065;-79
2023/01/04 13:08:07;;;;;;;8.02;2.03;;;12.90;99.90;;;;;;5119300;27;20527;-79
2023/01/04 13:10:55;;;;;;;10.48;2.13;;;12.80;99.90;;;;;;5094322;28;20051;-80
2023/01/04 13:13:54;;;;;;;11.90;3.53;;;12.90;99.90;;;;;;5112249;28;20043;-81
2023/01/04 13:16:43;;;;;;;10.60;2.78;;;12.80;99.90;;;;;;5110915;28;20148;-79
2023/01/04 13:19:29;;;;;;;12.18;3.05;;;12.80;99.90;;;;;;5093763;28;20046;-80
2023/01/04 13:21:55;;;;;;;11.93;2.85;;;12.80;99.90;;;;;;5134868;27;20079;-79
2023/01/04 13:24:35;;;;;;;14.90;3.30;;;12.90;99.90;;;;;;5112770;27;20055;-80
2023/01/04 13:27:22;;;;;;;14.02;3.10;;;12.90;99.90;;;;;;5097398;27;20413;-80
2023/01/04 13:29:49;;;;;;;11.82;3.10;;;12.80;99.90;;;;;;5114081;27;20113;-79
2023/01/04 13:32:26;;;;;;;12.20;3.25;;;12.80;99.90;;;;;;5114604;27;20043;-80
2023/01/04 13:35:01;;;;;;;14.73;3.30;;;12.90;99.90;;;;;;5113842;27;20047;-78
2023/01/04 13:37:34;;;;;;;13.80;4.00;;;12.90;99.90;;;;;;5130509;27;20062;-79
2023/01/04 13:40:16;;;;;;;16.00;3.83;;;12.90;99.90;;;;;;5113890;27;20037;-78
2023/01/04 13:42:48;;;;;;;16.17;4.20;;;12.90;99.90;;;;;;5132620;27;20122;-79
2023/01/04 13:45:16;;;;;;;13.65;3.65;;;12.90;99.90;;;;;;5113758;27;20043;-78
2023/01/04 13:47:43;;;;;;;12.98;3.15;;;12.90;99.90;;;;;;5114080;27;20066;-78
2023/01/04 13:50:20;;;;;;;14.70;3.97;;;12.90;99.90;;;;;;5131902;27;20070;-78